Time;durP1;ratioP1;P1;durP2;ratioP2;P2;SDS_P1;SDS_P2;PMS_P1;PMS_P2;Temp;Humidity;BMP_temperature;BMP_pressure;BME280_temperature;BME280_humidity;BME280_pressure;Samples;Min_cycle;Max_cycle;Signal;HPM_P1;HPM_P2
2023/04/30 00:02:00;;;;;;;0.65;0.60;;;;;;;12.10;100.00;100636.09;5094379;28;20058;-80
2023/04/30 00:04:26;;;;;;;0.80;0.80;;;;;;;12.09;100.00;100643.19;5104960;28;20041;-79
2023/04/30 00:06:52;;;;;;;0.70;0.70;;;;;;;12.05;100.00;100639.16;5121578;28;20035;-79
2023/04/30 00:09:17;;;;;;;1.55;0.85;;;;;;;12.04;100.00;100638.31;5086157;28;20067;-79
2023/04/30 00:11:44;;;;;;;1.40;0.80;;;;;;;12.03;100.00;100634.00;5116710;28;20039;-80
2023/04/30 00:14:09;;;;;;;0.75;0.75;;;;;;;12.05;100.00;100641.81;5099024;28;20042;-79
2023/04/30 00:16:35;;;;;;;1.02;0.80;;;;;;;12.03;100.00;100636.66;5096917;28;20836;-79
2023/04/30 00:19:01;;;;;;;2.85;0.73;;;;;;;12.02;100.00;100626.22;5108963;28;20609;-79
2023/04/30 00:21:27;;;;;;;1.30;0.52;;;;;;;11.97;100.00;100639.91;5106960;28;20106;-79
2023/04/30 00:23:53;;;;;;;1.02;0.93;;;;;;;11.97;100.00;100637.25;5102090;28;20088;-79
2023/04/30 00:26:19;;;;;;;0.75;0.75;;;;;;;11.96;100.00;100638.22;5103726;28;20042;-79
2023/04/30 00:28:47;;;;;;;1.00;0.90;;;;;;;11.96;100.00;100632.13;5103527;28;20035;-79
2023/04/30 00:31:14;;;;;;;0.52;0.52;;;;;;;11.91;100.00;100635.22;5109821;28;20039;-79
2023/04/30 00:33:40;;;;;;;0.55;0.55;;;;;;;11.87;100.00;100631.16;5091987;28;20038;-79
2023/04/30 00:36:06;;;;;;;2.33;0.70;;;;;;;11.87;100.00;100632.00;5107867;28;20027;-79
2023/04/30 00:38:32;;;;;;;0.70;0.70;;;;;;;11.89;100.00;100631.88;5088119;28;20024;-82
2023/04/30 00:40:58;;;;;;;0.60;0.60;;;;;;;11.91;100.00;100624.63;5107885;28;20046;-82
2023/04/30 00:43:23;;;;;;;1.02;0.70;;;;;;;11.95;100.00;100619.84;5102056;28;20448;-81
2023/04/30 00:45:49;;;;;;;0.77;0.52;;;;;;;11.98;100.00;100627.47;5104299;27;20490;-81
2023/04/30 00:48:15;;;;;;;0.75;0.73;;;;;;;12.00;100.00;100625.53;5090369;27;20115;-81
2023/04/30 00:50:43;;;;;;;0.85;0.70;;;;;;;12.05;100.00;100628.56;5110035;27;20031;-82
2023/04/30 00:53:10;;;;;;;2.38;0.70;;;;;;;12.11;100.00;100620.06;5106109;27;20118;-81
2023/04/30 00:55:37;;;;;;;0.70;0.70;;;;;;;12.15;100.00;100618.75;5110889;27;20031;-81
2023/04/30 00:58:04;;;;;;;0.95;0.73;;;;;;;12.20;100.00;100617.50;5087501;27;20077;-82
2023/04/30 01:00:30;;;;;;;0.60;0.60;;;;;;;12.17;100.00;100615.13;5100255;27;20483;-81
2023/04/30 01:02:56;;;;;;;2.65;0.57;;;;;;;12.15;100.00;100616.09;5098251;28;20027;-82
2023/04/30 01:05:22;;;;;;;0.68;0.68;;;;;;;12.15;100.00;100615.28;5085916;27;20032;-82
2023/04/30 01:07:49;;;;;;;1.55;0.90;;;;;;;12.12;100.00;100603.16;5105610;27;20491;-82
2023/04/30 01:10:15;;;;;;;0.65;0.65;;;;;;;12.12;100.00;100607.66;5107946;28;20031;-81
2023/04/30 01:12:55;;;;;;;0.60;0.60;;;;;;;12.08;100.00;100609.75;5109343;27;20034;-82
2023/04/30 01:15:39;;;;;;;1.48;0.73;;;;;;;11.99;100.00;100602.69;5103073;27;20074;-82
2023/04/30 01:18:16;;;;;;;0.43;0.43;;;;;;;11.95;100.00;100599.47;5126310;27;20504;-77
2023/04/30 01:20:53;;;;;;;0.63;0.63;;;;;;;11.94;100.00;100600.47;5100907;28;20039;-77
2023/04/30 01:23:31;;;;;;;0.50;0.50;;;;;;;11.94;100.00;100602.28;5110049;27;20035;-82
2023/04/30 01:26:00;;;;;;;0.77;0.50;;;;;;;11.96;100.00;100603.78;5106105;27;20034;-82
2023/04/30 01:28:27;;;;;;;2.05;0.68;;;;;;;11.95;100.00;100598.63;5122121;27;20075;-81
2023/04/30 01:30:54;;;;;;;1.13;0.63;;;;;;;11.97;100.00;100597.53;5104438;27;20031;-82
2023/04/30 01:33:20;;;;;;;1.13;0.57;;;;;;;12.03;100.00;100599.56;5084240;28;20042;-81
2023/04/30 01:36:12;;;;;;;0.52;0.52;;;;;;;12.09;100.00;100607.94;5105454;27;20027;-81
2023/04/30 01:39:16;;;;;;;0.57;0.57;;;;;;;12.18;100.00;100599.09;5105089;27;20536;-82
2023/04/30 01:42:12;;;;;;;0.77;0.73;;;;;;;12.23;100.00;100601.28;5102177;28;20523;-77
2023/04/30 01:45:09;;;;;;;2.38;0.45;;;;;;;12.25;100.00;100601.94;5118992;27;20045;-77
2023/04/30 01:48:06;;;;;;;0.47;0.47;;;;;;;12.26;100.00;100595.69;5109094;27;20031;-81
2023/04/30 01:50:48;;;;;;;0.60;0.60;;;;;;;12.27;100.00;100597.34;5052579;27;20752;-81
2023/04/30 01:53:31;;;;;;;0.60;0.60;;;;;;;12.28;100.00;100594.53;5069639;27;20434;-81
2023/04/30 01:56:07;;;;;;;0.65;0.65;;;;;;;12.33;100.00;100596.72;5088867;28;20429;-81
2023/04/30 01:58:34;;;;;;;0.80;0.63;;;;;;;12.33;100.00;100595.88;5090055;27;20116;-81
2023/04/30 02:01:01;;;;;;;0.60;0.60;;;;;;;12.38;100.00;100590.97;5084154;28;20060;-81
2023/04/30 02:03:27;;;;;;;1.40;0.63;;;;;;;12.39;100.00;100590.00;5099436;28;20035;-81
2023/04/30 02:05:54;;;;;;;1.05;0.70;;;;;;;12.39;100.00;100577.56;5105468;28;20040;-82
2023/04/30 02:08:20;;;;;;;0.60;0.60;;;;;;;12.42;100.00;100584.38;5096254;28;20039;-81
2023/04/30 02:10:46;;;;;;;1.35;0.70;;;;;;;12.44;100.00;100581.59;5094905;28;20039;-80
2023/04/30 02:13:11;;;;;;;1.08;0.50;;;;;;;12.46;100.00;100582.25;5096382;28;20469;-80
2023/04/30 02:15:37;;;;;;;0.50;0.50;;;;;;;12.49;100.00;100579.28;5104480;28;20028;-80
2023/04/30 02:18:03;;;;;;;0.60;0.60;;;;;;;12.48;100.00;100577.63;5084641;28;20131;-80
2023/04/30 02:20:29;;;;;;;0.75;0.75;;;;;;;12.47;100.00;100581.28;5100707;28;20669;-80
2023/04/30 02:22:55;;;;;;;0.40;0.40;;;;;;;12.45;100.00;100570.00;5085728;28;20049;-80
2023/04/30 02:25:21;;;;;;;0.65;0.60;;;;;;;12.40;100.00;100570.44;5089224;28;20034;-80
2023/04/30 02:27:49;;;;;;;0.63;0.63;;;;;;;12.36;100.00;100571.75;5088839;28;20039;-80
2023/04/30 02:30:15;;;;;;;1.48;0.55;;;;;;;12.36;100.00;100564.63;5104838;28;20468;-80
2023/04/30 02:32:40;;;;;;;0.60;0.60;;;;;;;12.30;100.00;100551.97;5104486;28;20032;-80
2023/04/30 02:35:07;;;;;;;0.75;0.75;;;;;;;12.28;100.00;100557.44;5067039;28;20031;-80
2023/04/30 02:37:32;;;;;;;0.90;0.90;;;;;;;12.26;100.00;100550.63;5102510;28;20040;-80
2023/04/30 02:39:58;;;;;;;0.65;0.65;;;;;;;12.25;100.00;100556.91;5097427;28;20085;-80
2023/04/30 02:42:24;;;;;;;1.10;0.85;;;;;;;12.19;100.00;100544.25;5069260;28;20044;-80
2023/04/30 02:44:50;;;;;;;0.98;0.95;;;;;;;12.11;100.00;100551.16;5102802;28;20530;-80
2023/04/30 02:47:16;;;;;;;2.35;0.90;;;;;;;12.10;100.00;100554.81;5120169;27;20020;-80
2023/04/30 02:49:42;;;;;;;0.85;0.80;;;;;;;12.11;100.00;100564.41;5102790;28;20371;-80
2023/04/30 02:52:08;;;;;;;1.02;0.70;;;;;;;12.14;100.00;100561.47;5101991;28;20031;-79
2023/04/30 02:54:35;;;;;;;0.70;0.70;;;;;;;12.19;100.00;100568.09;5101569;28;20031;-80
2023/04/30 02:57:01;;;;;;;0.70;0.60;;;;;;;12.19;100.00;100560.16;5103371;28;20030;-80
2023/04/30 02:59:26;;;;;;;1.38;1.10;;;;;;;12.17;100.00;100562.97;5103226;28;20032;-80
2023/04/30 03:01:52;;;;;;;0.73;0.73;;;;;;;12.15;100.00;100559.66;5083014;28;20389;-80
2023/04/30 03:04:19;;;;;;;2.90;1.00;;;;;;;12.13;100.00;100567.75;5088292;28;20035;-80
2023/04/30 03:06:45;;;;;;;1.30;1.20;;;;;;;12.12;100.00;100571.38;5088141;28;20039;-80
2023/04/30 03:09:11;;;;;;;1.42;1.00;;;;;;;12.15;100.00;100567.59;5104029;28;20395;-79
2023/04/30 03:11:37;;;;;;;1.10;1.10;;;;;;;12.19;100.00;100570.75;5102811;28;20035;-80
2023/04/30 03:14:03;;;;;;;0.80;0.80;;;;;;;12.16;100.00;100563.94;5100754;28;20035;-80
2023/04/30 03:16:30;;;;;;;1.00;1.00;;;;;;;12.18;100.00;100567.28;5077487;28;20024;-76
2023/04/30 03:18:56;;;;;;;2.75;1.25;;;;;;;12.20;100.00;100567.13;5086864;27;20115;-75
2023/04/30 03:21:22;;;;;;;3.00;1.33;;;;;;;12.19;100.00;100565.47;5098375;28;20078;-75
2023/04/30 03:23:47;;;;;;;1.30;1.20;;;;;;;12.22;100.00;100570.44;5102271;28;20064;-80
2023/04/30 03:26:14;;;;;;;1.02;1.02;;;;;;;12.24;100.00;100563.19;5100515;28;20046;-80
2023/04/30 03:28:40;;;;;;;2.40;1.33;;;;;;;12.27;100.00;100566.38;5101533;28;20067;-79
2023/04/30 03:31:05;;;;;;;2.83;1.02;;;;;;;12.29;100.00;100566.22;5106941;28;20557;-79
2023/04/30 03:33:32;;;;;;;1.40;1.30;;;;;;;12.30;100.00;100570.53;5106229;28;20035;-79
2023/04/30 03:35:58;;;;;;;1.48;1.38;;;;;;;12.29;100.00;100566.22;5086979;28;20110;-79
2023/04/30 03:38:24;;;;;;;1.40;1.30;;;;;;;12.27;100.00;100563.72;5086301;28;20102;-79
2023/04/30 03:40:50;;;;;;;3.25;1.60;;;;;;;12.26;100.00;100559.38;5104843;28;20391;-79
2023/04/30 03:43:16;;;;;;;1.73;1.63;;;;;;;12.25;100.00;100559.53;5084998;28;20038;-79
2023/04/30 03:45:42;;;;;;;2.63;1.60;;;;;;;12.24;100.00;100565.84;5096877;28;20032;-79
2023/04/30 03:48:08;;;;;;;9.07;1.70;;;;;;;12.20;100.00;100567.94;5101672;28;20645;-79
2023/04/30 03:50:34;;;;;;;1.80;1.70;;;;;;;12.16;100.00;100571.91;5082027;28;20097;-79
2023/04/30 03:53:00;;;;;;;1.80;1.55;;;;;;;12.17;100.00;100565.59;5097354;28;20538;-75
2023/04/30 03:55:28;;;;;;;1.67;1.58;;;;;;;12.18;100.00;100571.75;5103882;28;20024;-75
2023/04/30 03:57:53;;;;;;;1.88;1.77;;;;;;;12.20;100.00;100564.50;5103556;28;20043;-79
2023/04/30 04:00:20;;;;;;;1.92;1.83;;;;;;;12.21;100.00;100568.78;5098211;28;20054;-79
2023/04/30 04:02:49;;;;;;;1.83;1.73;;;;;;;12.19;100.00;100562.81;5121695;28;20031;-79
2023/04/30 04:05:15;;;;;;;1.90;1.80;;;;;;;12.19;100.00;100565.47;5102369;28;20032;-79
2023/04/30 04:07:42;;;;;;;2.20;2.00;;;;;;;12.13;100.00;100564.25;5100725;28;20439;-79
2023/04/30 04:10:08;;;;;;;4.53;1.90;;;;;;;12.10;100.00;100559.25;5103622;28;20043;-79
2023/04/30 04:12:34;;;;;;;2.20;2.10;;;;;;;12.09;100.00;100560.25;5097642;28;20031;-79
2023/04/30 04:15:00;;;;;;;2.40;2.03;;;;;;;12.08;100.00;100561.22;5100832;28;20380;-79
2023/04/30 04:17:26;;;;;;;2.90;2.35;;;;;;;12.09;100.00;100568.22;5075157;28;20510;-79
2023/04/30 04:19:52;;;;;;;3.17;2.10;;;;;;;12.10;100.00;100569.84;5099699;28;20052;-80
2023/04/30 04:22:17;;;;;;;2.53;2.33;;;;;;;12.10;100.00;100562.75;5100072;28;20043;-79
2023/04/30 04:24:45;;;;;;;2.80;2.60;;;;;;;12.11;100.00;100556.47;5100523;28;20031;-80
2023/04/30 04:27:15;;;;;;;2.92;2.72;;;;;;;12.12;100.00;100558.13;5073588;28;20031;-75
2023/04/30 04:29:41;;;;;;;4.07;2.80;;;;;;;12.16;100.00;100556.00;5108570;28;20461;-75
2023/04/30 04:32:09;;;;;;;2.80;2.60;;;;;;;12.17;100.00;100557.66;5109273;28;20036;-79
2023/04/30 04:34:37;;;;;;;3.53;2.50;;;;;;;12.13;100.00;100554.50;5107908;28;20118;-79
2023/04/30 04:37:03;;;;;;;3.17;2.97;;;;;;;12.14;100.00;100547.38;5119970;27;20036;-79
2023/04/30 04:39:29;;;;;;;3.08;2.40;;;;;;;12.10;100.00;100538.06;5100251;28;20615;-79
2023/04/30 04:41:55;;;;;;;3.15;2.95;;;;;;;12.06;100.00;100539.31;5080666;28;20039;-79
2023/04/30 04:44:22;;;;;;;2.78;2.58;;;;;;;12.04;100.00;100550.06;5096936;28;20070;-80
2023/04/30 04:46:48;;;;;;;3.13;2.92;;;;;;;12.02;100.00;100552.03;5108100;28;20032;-80
2023/04/30 04:49:14;;;;;;;3.67;2.95;;;;;;;12.03;100.00;100540.44;5081154;28;20024;-79
2023/04/30 04:51:40;;;;;;;3.40;3.20;;;;;;;12.04;100.00;100535.00;5086359;28;20111;-80
2023/04/30 04:54:06;;;;;;;3.35;3.05;;;;;;;12.03;100.00;100538.66;5105542;28;20032;-79
2023/04/30 04:56:32;;;;;;;3.13;2.92;;;;;;;12.06;100.00;100539.31;5086152;28;20392;-79
2023/04/30 04:58:58;;;;;;;3.28;3.05;;;;;;;12.08;100.00;100535.56;5101572;27;20115;-79
2023/04/30 05:01:24;;;;;;;2.90;2.70;;;;;;;12.07;100.00;100528.56;5090279;28;20108;-79
2023/04/30 05:03:52;;;;;;;3.40;3.10;;;;;;;12.08;100.00;100535.56;5107396;28;20032;-79
2023/04/30 05:06:18;;;;;;;3.65;2.75;;;;;;;12.05;100.00;100527.91;5081480;28;20517;-80
2023/04/30 05:08:43;;;;;;;3.00;2.80;;;;;;;12.05;100.00;100525.25;5098140;28;20035;-80
2023/04/30 05:11:11;;;;;;;3.05;2.85;;;;;;;12.05;100.00;100522.59;5089538;28;20032;-79
2023/04/30 05:13:37;;;;;;;3.25;2.95;;;;;;;12.00;100.00;100525.69;5101817;28;20035;-80
2023/04/30 05:16:03;;;;;;;4.85;3.30;;;;;;;11.97;100.00;100530.47;5089231;28;20552;-79
2023/04/30 05:18:29;;;;;;;3.85;2.85;;;;;;;11.89;100.00;100542.66;5107534;28;20066;-80
2023/04/30 05:20:55;;;;;;;2.75;2.55;;;;;;;11.89;100.00;100536.50;5092450;28;20112;-79
2023/04/30 05:23:21;;;;;;;3.60;3.00;;;;;;;11.90;100.00;100536.38;5105763;28;20027;-79
2023/04/30 05:25:51;;;;;;;3.60;3.30;;;;;;;11.91;100.00;100538.03;5104586;28;20024;-79
2023/04/30 05:28:17;;;;;;;3.38;2.85;;;;;;;11.88;100.00;100535.69;5106106;28;20463;-79
2023/04/30 05:30:42;;;;;;;3.50;3.20;;;;;;;11.84;100.00;100544.91;5104937;28;20100;-79
2023/04/30 05:33:08;;;;;;;3.03;2.80;;;;;;;11.85;100.00;100541.28;5088509;28;20035;-79
2023/04/30 05:35:34;;;;;;;3.60;3.30;;;;;;;11.84;100.00;100538.78;5096642;28;20028;-79
2023/04/30 05:38:01;;;;;;;3.00;2.70;;;;;;;11.83;100.00;100542.41;5083984;28;20031;-79
2023/04/30 05:40:28;;;;;;;3.10;2.90;;;;;;;11.78;100.00;100542.88;5095739;28;20384;-79
2023/04/30 05:42:55;;;;;;;3.35;3.05;;;;;;;11.74;100.00;100533.53;5089710;28;20111;-75
2023/04/30 05:45:21;;;;;;;3.60;3.30;;;;;;;11.68;100.00;100547.38;5116894;27;20023;-75
2023/04/30 05:47:46;;;;;;;6.82;3.17;;;;;;;11.67;100.00;100546.56;5099208;28;20028;-80
2023/04/30 05:50:12;;;;;;;3.80;3.40;;;;;;;11.66;100.00;100547.53;5095684;28;20047;-79
2023/04/30 05:52:38;;;;;;;5.00;3.05;;;;;;;11.66;100.00;100537.78;5106985;28;20060;-79
2023/04/30 05:55:05;;;;;;;3.47;3.17;;;;;;;11.69;100.00;100543.78;5107185;28;20032;-80
2023/04/30 05:57:30;;;;;;;4.28;3.60;;;;;;;11.76;100.00;100539.53;5105293;28;20394;-75
2023/04/30 05:59:56;;;;;;;6.50;3.58;;;;;;;11.86;100.00;100537.66;5108557;27;20031;-75
2023/04/30 06:02:22;;;;;;;4.05;3.65;;;;;;;11.95;100.00;100540.38;5106290;27;20151;-79
2023/04/30 06:04:48;;;;;;;3.33;3.03;;;;;;;11.96;100.00;100545.50;5104075;27;20038;-80
2023/04/30 06:07:14;;;;;;;4.72;3.40;;;;;;;11.93;100.00;100543.16;5099445;27;20039;-79
2023/04/30 06:09:40;;;;;;;3.88;3.40;;;;;;;11.93;100.00;100540.50;5099557;28;20076;-79
2023/04/30 06:12:05;;;;;;;4.00;3.50;;;;;;;11.97;100.00;100546.34;5079764;27;20089;-79
2023/04/30 06:14:31;;;;;;;3.90;3.20;;;;;;;11.95;100.00;100549.16;5107279;27;20035;-79
2023/04/30 06:16:57;;;;;;;8.77;3.83;;;;;;;11.94;100.00;100544.84;5082184;27;20051;-79
2023/04/30 06:19:23;;;;;;;5.30;3.25;;;;;;;11.94;100.00;100560.75;5086689;28;20188;-79
2023/04/30 06:21:48;;;;;;;4.78;4.00;;;;;;;11.90;100.00;100562.00;5102292;27;20592;-79
2023/04/30 06:24:14;;;;;;;4.68;3.40;;;;;;;11.94;100.00;100568.69;5105965;27;20387;-79
2023/04/30 06:26:40;;;;;;;5.07;3.35;;;;;;;11.96;100.00;100577.31;5092051;27;20070;-79
2023/04/30 06:29:05;;;;;;;4.47;3.60;;;;;;;11.95;100.00;100573.00;5120344;27;20046;-79
2023/04/30 06:31:31;;;;;;;4.45;3.60;;;;;;;11.93;100.00;100574.94;5106812;27;20030;-76
2023/04/30 06:33:57;;;;;;;4.18;3.78;;;;;;;11.96;100.00;100581.78;5124432;27;20053;-75
2023/04/30 06:36:23;;;;;;;4.13;3.72;;;;;;;11.98;100.00;100583.28;5111127;27;20039;-75
2023/04/30 06:38:49;;;;;;;3.70;3.30;;;;;;;12.02;100.00;100583.84;5108257;27;20027;-79
2023/04/30 06:41:15;;;;;;;3.60;3.30;;;;;;;12.03;100.00;100588.13;5110493;27;20027;-79
2023/04/30 06:43:42;;;;;;;4.55;3.42;;;;;;;12.04;100.00;100584.50;5096758;28;20055;-75
2023/04/30 06:46:08;;;;;;;4.30;3.72;;;;;;;12.00;100.00;100583.97;5112850;27;20139;-75
2023/04/30 06:48:34;;;;;;;3.78;3.28;;;;;;;12.01;100.00;100587.44;5127345;27;20114;-79
2023/04/30 06:51:00;;;;;;;5.05;3.50;;;;;;;11.96;100.00;100581.78;5110255;27;20042;-79
2023/04/30 06:53:25;;;;;;;5.47;4.05;;;;;;;11.99;100.00;100586.78;5109649;27;20023;-75
2023/04/30 06:55:51;;;;;;;3.88;3.45;;;;;;;12.01;100.00;100588.28;5102241;28;20490;-75
2023/04/30 06:58:18;;;;;;;4.82;3.63;;;;;;;12.03;100.00;100590.78;5126412;27;20554;-75
2023/04/30 07:00:44;;;;;;;6.38;3.65;;;;;;;12.08;100.00;100591.22;5122493;27;20043;-75
2023/04/30 07:03:10;;;;;;;4.38;3.85;;;;;;;12.15;100.00;100594.09;5124958;27;20546;-79
2023/04/30 07:05:36;;;;;;;3.67;3.20;;;;;;;12.22;100.00;100599.59;5105805;27;20031;-80
2023/04/30 07:08:02;;;;;;;6.05;3.67;;;;;;;12.28;100.00;100599.84;5127669;27;20479;-80
2023/04/30 07:10:30;;;;;;;5.28;3.45;;;;;;;12.35;100.00;100592.13;5092039;27;20070;-80
2023/04/30 07:12:55;;;;;;;4.40;3.22;;;;;;;12.35;100.00;100594.75;5110015;27;20031;-79
2023/04/30 07:15:22;;;;;;;4.15;3.22;;;;;;;12.37;100.00;100592.81;5107849;27;20031;-80
2023/04/30 07:17:47;;;;;;;3.78;3.00;;;;;;;12.44;100.00;100603.59;5091368;27;20039;-80
2023/04/30 07:20:13;;;;;;;3.47;3.17;;;;;;;12.47;100.00;100600.66;5121920;27;20595;-79
2023/04/30 07:22:40;;;;;;;8.48;3.50;;;;;;;12.51;100.00;100599.38;5126180;27;20023;-79
2023/04/30 07:25:06;;;;;;;5.80;3.05;;;;;;;12.58;100.00;100604.88;5104151;27;20027;-80
2023/04/30 07:27:32;;;;;;;7.95;2.63;;;;;;;12.58;100.00;100596.09;5122465;27;20027;-80
2023/04/30 07:29:58;;;;;;;2.85;2.63;;;;;;;12.61;100.00;100603.75;5105894;27;20057;-80
2023/04/30 07:32:25;;;;;;;2.83;2.47;;;;;;;12.65;100.00;100603.28;5097015;27;20070;-80
2023/04/30 07:34:52;;;;;;;3.67;2.75;;;;;;;12.69;100.00;100614.44;5124055;27;20023;-80
2023/04/30 07:37:18;;;;;;;4.05;3.13;;;;;;;12.72;100.00;100606.16;5091543;27;20035;-75
2023/04/30 07:39:44;;;;;;;5.50;2.65;;;;;;;12.77;100.00;100608.34;5105384;27;20061;-75
2023/04/30 07:42:10;;;;;;;4.60;2.40;;;;;;;12.77;100.00;100605.69;5120465;27;20058;-80
2023/04/30 07:44:36;;;;;;;3.60;2.42;;;;;;;12.77;100.00;100606.50;5099891;27;20034;-80
2023/04/30 07:47:02;;;;;;;4.63;2.70;;;;;;;12.79;100.00;100606.34;5103891;28;20110;-80
2023/04/30 07:49:28;;;;;;;3.17;2.47;;;;;;;12.83;100.00;100601.59;5095906;28;20498;-80
2023/04/30 07:51:53;;;;;;;5.22;2.00;;;;;;;12.90;100.00;100610.56;5099319;28;20043;-80
2023/04/30 07:54:20;;;;;;;3.78;2.40;;;;;;;12.93;100.00;100606.78;5097079;28;20613;-79
2023/04/30 07:56:47;;;;;;;2.90;2.20;;;;;;;12.98;100.00;100605.31;5105216;27;20058;-79
2023/04/30 07:59:13;;;;;;;5.43;2.10;;;;;;;12.99;100.00;100607.00;5102669;27;20046;-80
2023/04/30 08:01:40;;;;;;;4.03;2.00;;;;;;;12.98;100.00;100602.69;5128849;27;20043;-80
2023/04/30 08:04:06;;;;;;;5.47;2.03;;;;;;;12.97;100.00;100613.44;5091935;27;20035;-80
2023/04/30 08:06:32;;;;;;;7.07;2.42;;;;;;;12.92;100.00;100610.41;5105854;27;20047;-79
2023/04/30 08:08:58;;;;;;;2.63;2.03;;;;;;;12.89;100.00;100614.22;5105275;27;20066;-80
2023/04/30 08:11:23;;;;;;;2.75;1.70;;;;;;;12.96;100.00;100623.25;5104214;27;20035;-80
2023/04/30 08:13:49;;;;;;;3.38;2.17;;;;;;;13.05;100.00;100620.63;5104931;27;20076;-80
2023/04/30 08:16:15;;;;;;;7.50;2.55;;;;;;;13.14;100.00;100625.81;5106827;27;20027;-79
2023/04/30 08:18:43;;;;;;;5.50;1.98;;;;;;;13.19;100.00;100617.41;5105626;27;20678;-80
2023/04/30 08:21:12;;;;;;;3.90;2.15;;;;;;;13.26;100.00;100621.09;5108362;27;20019;-80
2023/04/30 08:23:38;;;;;;;3.35;1.73;;;;;;;13.27;100.00;100612.13;5106659;27;20042;-80
2023/04/30 08:26:04;;;;;;;3.88;1.88;;;;;;;13.35;100.00;100610.50;5106513;27;20406;-80
2023/04/30 08:28:30;;;;;;;4.93;1.80;;;;;;;13.44;100.00;100622.00;5125018;27;20027;-79
2023/04/30 08:30:55;;;;;;;5.53;1.80;;;;;;;13.49;100.00;100615.22;5107196;27;20719;-80
2023/04/30 08:33:21;;;;;;;4.50;1.52;;;;;;;13.55;100.00;100611.13;5107121;27;20055;-79
2023/04/30 08:35:47;;;;;;;3.83;1.50;;;;;;;13.51;100.00;100610.63;5105704;27;20023;-79
2023/04/30 08:38:13;;;;;;;2.75;1.48;;;;;;;13.56;100.00;100611.94;5092038;27;20039;-79
2023/04/30 08:40:40;;;;;;;4.82;1.83;;;;;;;13.72;100.00;100612.03;5110286;27;20390;-80
2023/04/30 08:43:08;;;;;;;4.63;1.83;;;;;;;13.86;100.00;100609.72;5093846;27;20793;-79
2023/04/30 08:45:35;;;;;;;10.13;2.03;;;;;;;13.90;100.00;100611.09;5104861;27;20039;-80
2023/04/30 08:48:03;;;;;;;4.88;1.75;;;;;;;13.93;100.00;100609.91;5128310;27;20035;-80
2023/04/30 08:50:29;;;;;;;6.28;1.63;;;;;;;13.94;100.00;100603.59;5123081;27;20226;-80
2023/04/30 08:52:59;;;;;;;4.63;1.95;;;;;;;13.98;100.00;100604.94;5091340;27;20577;-79
2023/04/30 08:55:26;;;;;;;8.70;2.20;;;;;;;14.00;100.00;100605.59;5125135;27;20027;-79
2023/04/30 08:57:53;;;;;;;4.45;1.88;;;;;;;14.15;100.00;100597.84;5113510;27;20102;-75
2023/04/30 09:00:19;;;;;;;3.97;1.98;;;;;;;14.27;100.00;100603.66;5105299;27;20134;-76
2023/04/30 09:02:47;;;;;;;7.68;1.70;;;;;;;14.39;100.00;100599.69;5092315;27;20031;-80
2023/04/30 09:05:14;;;;;;;4.80;1.55;;;;;;;14.57;100.00;100601.31;5107450;27;20055;-79
2023/04/30 09:07:45;;;;;;;3.42;1.48;;;;;;;14.67;100.00;100600.34;5103005;27;20031;-76
2023/04/30 09:10:20;;;;;;;6.22;1.35;;;;;;;14.68;100.00;100594.03;5085799;27;21315;-76
2023/04/30 09:13:06;;;;;;;5.70;1.27;;;;;;;14.81;100.00;100590.88;5122981;27;20073;-80
2023/04/30 09:15:33;;;;;;;5.43;1.20;;;;;;;14.93;100.00;100586.03;5104313;27;20043;-79
2023/04/30 09:18:18;;;;;;;5.93;1.55;;;;;;;15.09;100.00;100590.47;5105717;27;20031;-80
2023/04/30 09:21:02;;;;;;;5.13;2.10;;;;;;;15.24;100.00;100582.63;5107672;27;20038;-79
2023/04/30 09:23:29;;;;;;;6.28;1.60;;;;;;;15.30;100.00;100583.75;5108764;27;20038;-75
2023/04/30 09:25:59;;;;;;;9.20;1.83;;;;;;;15.29;100.00;100590.09;5104378;27;20063;-75
2023/04/30 09:28:27;;;;;;;6.68;1.40;;;;;;;15.20;100.00;100595.44;5107267;27;20039;-79
2023/04/30 09:30:55;;;;;;;6.53;1.85;;;;;;;15.03;100.00;100586.69;5084236;27;20125;-79
2023/04/30 09:33:21;;;;;;;7.60;1.50;;;;;;;14.93;100.00;100592.19;5125761;27;20046;-79
2023/04/30 09:35:48;;;;;;;7.43;1.50;;;;;;;14.88;100.00;100587.38;5088582;27;20083;-79
2023/04/30 09:38:31;;;;;;;7.25;1.60;;;;;;;14.97;100.00;100587.38;5123591;27;20066;-80
2023/04/30 09:40:59;;;;;;;11.98;2.40;;;;;;;14.98;100.00;100594.34;5103807;28;20043;-79
2023/04/30 09:43:26;;;;;;;8.57;2.53;;;;;;;15.00;100.00;100595.00;5122451;27;20035;-75
2023/04/30 09:45:52;;;;;;;7.65;1.50;;;;;;;15.07;100.00;100592.47;5105115;27;20484;-76
2023/04/30 09:48:21;;;;;;;4.93;1.15;;;;;;;15.19;100.00;100600.94;5121504;27;20035;-79
2023/04/30 09:50:48;;;;;;;9.32;1.40;;;;;;;15.30;100.00;100597.06;5103571;27;20467;-79
2023/04/30 09:53:18;;;;;;;6.50;1.40;;;;;;;15.34;100.00;100596.56;5090449;27;20032;-79
2023/04/30 09:55:48;;;;;;;7.10;1.45;;;;;;;15.32;100.00;100600.41;5109381;27;20176;-79
2023/04/30 09:58:16;;;;;;;5.80;1.00;;;;;;;15.18;100.00;100597.44;5104027;27;20042;-76
2023/04/30 10:00:44;;;;;;;7.80;1.20;;;;;;;15.16;100.00;100595.97;5116268;27;20054;-75
2023/04/30 10:03:12;;;;;;;7.10;1.42;;;;;;;15.14;100.00;100593.47;5102039;27;20423;-79
2023/04/30 10:05:46;;;;;;;10.43;2.15;;;;;;;15.24;100.00;100593.28;5090599;27;20035;-79
2023/04/30 10:08:27;;;;;;;5.93;1.60;;;;;;;15.32;100.00;100579.91;5085796;27;20050;-79
2023/04/30 10:10:59;;;;;;;9.57;1.75;;;;;;;15.28;100.00;100575.94;5118660;27;20046;-79
2023/04/30 10:13:30;;;;;;;5.40;1.40;;;;;;;15.24;100.00;100580.78;5109337;27;20062;-79
2023/04/30 10:16:00;;;;;;;8.10;1.17;;;;;;;15.25;100.00;100584.28;5114488;27;20024;-79
2023/04/30 10:18:37;;;;;;;9.82;1.23;;;;;;;15.38;100.00;100584.53;5093626;27;20522;-80
2023/04/30 10:21:10;;;;;;;5.95;1.17;;;;;;;15.48;100.00;100588.88;5120414;27;20130;-79
2023/04/30 10:23:38;;;;;;;7.10;1.35;;;;;;;15.50;100.00;100581.50;5121657;27;20031;-79
2023/04/30 10:26:04;;;;;;;7.53;1.88;;;;;;;15.38;100.00;100587.22;5112623;27;20055;-80
2023/04/30 10:28:31;;;;;;;11.63;1.67;;;;;;;15.32;100.00;100584.44;5103010;27;20042;-76
2023/04/30 10:30:58;;;;;;;12.00;1.73;;;;;;;15.20;100.00;100578.63;5121260;27;20092;-76
2023/04/30 10:34:05;;;;;;;5.22;1.45;;;;;;;15.09;100.00;100571.84;5085890;27;20126;-76
2023/04/30 10:36:43;;;;;;;6.68;1.63;;;;;;;15.18;100.00;100576.13;5068048;27;21067;-79
2023/04/30 10:39:11;;;;;;;7.13;1.83;;;;;;;15.36;100.00;100575.06;5100881;28;20531;-78
2023/04/30 10:41:37;;;;;;;8.68;1.40;;;;;;;15.61;100.00;100575.78;5086600;27;20163;-76
2023/04/30 10:44:06;;;;;;;10.98;1.85;;;;;;;15.79;100.00;100566.72;5084661;27;20039;-76
2023/04/30 10:46:35;;;;;;;8.18;1.35;;;;;;;16.00;100.00;100575.94;5126210;27;20034;-79
2023/04/30 10:49:01;;;;;;;6.50;1.50;;;;;;;16.21;100.00;100561.94;5113697;27;20062;-79
2023/04/30 10:51:50;;;;;;;8.73;1.77;;;;;;;16.59;100.00;100560.31;5108154;27;20035;-79
2023/04/30 10:54:26;;;;;;;5.90;1.25;;;;;;;16.56;100.00;100572.16;5093292;27;20046;-80
2023/04/30 10:56:52;;;;;;;;;;;;;;;16.14;100.00;100573.50;5107202;27;20032;-76
2023/04/30 10:59:19;;;;;;;;;;;;;;;15.75;100.00;100582.22;5104765;27;19946;-75
2023/04/30 11:02:00;;;;;;;6.32;1.70;;;;;;;15.46;100.00;100582.88;5114531;27;19915;-78
2023/04/30 11:04:27;;;;;;;5.70;1.35;;;;;;;15.25;100.00;100582.47;5093257;27;20668;-79
2023/04/30 11:06:53;;;;;;;9.15;1.42;;;;;;;15.13;100.00;100587.31;5106387;27;20454;-79
2023/04/30 11:09:43;;;;;;;10.98;1.60;;;;;;;14.99;100.00;100583.53;5096552;28;20114;-79
2023/04/30 11:12:27;;;;;;;7.20;1.40;;;;;;;14.88;100.00;100578.56;5099781;28;20035;-79
2023/04/30 11:15:00;;;;;;;3.97;0.85;;;;;;;14.88;100.00;100571.41;5095073;28;20268;-79
2023/04/30 11:17:27;;;;;;;5.05;1.20;;;;;;;14.93;100.00;100568.22;5122921;27;20058;-79
2023/04/30 11:19:53;;;;;;;5.68;1.30;;;;;;;14.98;100.00;100573.88;5102843;28;20490;-79
2023/04/30 11:22:23;;;;;;;5.70;1.00;;;;;;;15.09;100.00;100575.34;5114781;27;20099;-76